sensor_id;sensor_type;location;lat;lon;timestamp;pressure;altitude;pressure_sealevel;temperature;humidity
66176;BME280;52977;44.816;20.538;2023-03-16T00:02:07;99597.56;;;2.21;100.00
66176;BME280;52977;44.816;20.538;2023-03-16T00:04:33;99590.56;;;2.25;100.00
66176;BME280;52977;44.816;20.538;2023-03-16T00:07:07;99602.41;;;2.24;100.00
66176;BME280;52977;44.816;20.538;2023-03-16T00:09:34;99576.28;;;2.04;100.00
66176;BME280;52977;44.816;20.538;2023-03-16T00:12:14;99540.72;;;1.76;100.00
66176;BME280;52977;44.816;20.538;2023-03-16T00:14:47;99602.97;;;2.21;100.00
66176;BME280;52977;44.816;20.538;2023-03-16T00:17:16;99605.91;;;2.19;100.00
66176;BME280;52977;44.816;20.538;2023-03-16T00:19:49;99605.91;;;2.19;100.00
66176;BME280;52977;44.816;20.538;2023-03-16T00:22:35;99609.16;;;2.16;100.00
66176;BME280;52977;44.816;20.538;2023-03-16T00:25:01;99612.13;;;2.25;100.00
66176;BME280;52977;44.816;20.538;2023-03-16T00:27:27;99479.84;;;1.39;100.00
66176;BME280;52977;44.816;20.538;2023-03-16T00:29:54;99486.88;;;1.40;100.00
66176;BME280;52977;44.816;20.538;2023-03-16T00:32:28;99621.53;;;2.17;100.00
66176;BME280;52977;44.816;20.538;2023-03-16T00:34:55;99613.16;;;2.19;100.00
66176;BME280;52977;44.816;20.538;2023-03-16T00:37:21;99554.72;;;1.83;100.00
66176;BME280;52977;44.816;20.538;2023-03-16T00:39:49;99598.91;;;2.13;100.00
66176;BME280;52977;44.816;20.538;2023-03-16T00:42:17;99608.06;;;2.17;100.00
66176;BME280;52977;44.816;20.538;2023-03-16T00:44:44;99617.75;;;2.34;100.00
66176;BME280;52977;44.816;20.538;2023-03-16T00:47:11;99515.16;;;1.63;100.00
66176;BME280;52977;44.816;20.538;2023-03-16T00:49:42;99556.59;;;1.88;100.00
66176;BME280;52977;44.816;20.538;2023-03-16T00:52:11;99633.69;;;2.30;100.00
66176;BME280;52977;44.816;20.538;2023-03-16T00:54:43;99571.69;;;2.04;100.00
66176;BME280;52977;44.816;20.538;2023-03-16T00:57:11;99615.63;;;2.31;100.00
66176;BME280;52977;44.816;20.538;2023-03-16T00:59:38;99554.97;;;1.87;100.00
66176;BME280;52977;44.816;20.538;2023-03-16T01:02:06;99623.69;;;2.41;100.00
66176;BME280;52977;44.816;20.538;2023-03-16T01:04:33;99615.88;;;2.29;100.00
66176;BME280;52977;44.816;20.538;2023-03-16T01:07:06;99632.56;;;2.47;100.00
66176;BME280;52977;44.816;20.538;2023-03-16T01:09:32;99583.28;;;2.20;100.00
66176;BME280;52977;44.816;20.538;2023-03-16T01:12:18;99631.75;;;2.56;100.00
66176;BME280;52977;44.816;20.538;2023-03-16T01:14:45;99629.06;;;2.62;100.00
66176;BME280;52977;44.816;20.538;2023-03-16T01:17:13;99591.09;;;2.37;100.00
66176;BME280;52977;44.816;20.538;2023-03-16T01:19:40;99616.16;;;2.59;100.00
66176;BME280;52977;44.816;20.538;2023-03-16T01:22:07;99632.03;;;2.76;100.00
66176;BME280;52977;44.816;20.538;2023-03-16T01:24:35;99604.28;;;2.49;100.00
66176;BME280;52977;44.816;20.538;2023-03-16T01:27:02;99613.47;;;2.64;100.00
66176;BME280;52977;44.816;20.538;2023-03-16T01:29:29;99534.81;;;2.15;100.00
66176;BME280;52977;44.816;20.538;2023-03-16T01:31:58;99628.53;;;2.75;100.00
66176;BME280;52977;44.816;20.538;2023-03-16T01:34:24;99629.59;;;2.79;100.00
66176;BME280;52977;44.816;20.538;2023-03-16T01:36:50;99631.22;;;2.70;100.00
66176;BME280;52977;44.816;20.538;2023-03-16T01:39:33;99496.59;;;1.93;100.00
66176;BME280;52977;44.816;20.538;2023-03-16T01:42:00;99651.97;;;2.80;100.00
66176;BME280;52977;44.816;20.538;2023-03-16T01:44:26;99629.84;;;2.78;100.00
66176;BME280;52977;44.816;20.538;2023-03-16T01:46:59;99632.31;;;2.74;100.00
66176;BME280;52977;44.816;20.538;2023-03-16T01:49:31;99647.91;;;2.87;100.00
66176;BME280;52977;44.816;20.538;2023-03-16T01:52:09;99622.34;;;2.69;100.00
66176;BME280;52977;44.816;20.538;2023-03-16T01:54:43;99615.59;;;2.56;100.00
66176;BME280;52977;44.816;20.538;2023-03-16T01:57:20;99644.72;;;2.75;100.00
66176;BME280;52977;44.816;20.538;2023-03-16T01:59:58;99644.16;;;2.78;100.00
66176;BME280;52977;44.816;20.538;2023-03-16T02:03:07;99647.13;;;2.66;100.00
66176;BME280;52977;44.816;20.538;2023-03-16T02:05:49;99647.13;;;2.66;100.00
66176;BME280;52977;44.816;20.538;2023-03-16T02:08:20;99638.50;;;2.54;100.00
66176;BME280;52977;44.816;20.538;2023-03-16T02:10:48;99505.97;;;1.64;100.00
66176;BME280;52977;44.816;20.538;2023-03-16T02:13:14;99664.94;;;2.57;100.00
66176;BME280;52977;44.816;20.538;2023-03-16T02:15:40;99592.16;;;2.11;100.00
66176;BME280;52977;44.816;20.538;2023-03-16T02:18:07;99665.75;;;2.47;100.00
66176;BME280;52977;44.816;20.538;2023-03-16T02:23:19;99656.56;;;2.48;100.00
66176;BME280;52977;44.816;20.538;2023-03-16T02:31:10;99639.56;;;2.12;100.00
66176;BME280;52977;44.816;20.538;2023-03-16T02:33:38;99624.22;;;2.12;100.00
66176;BME280;52977;44.816;20.538;2023-03-16T02:36:07;99679.19;;;2.32;100.00
66176;BME280;52977;44.816;20.538;2023-03-16T02:38:33;99680.53;;;2.29;100.00
66176;BME280;52977;44.816;20.538;2023-03-16T02:41:13;99683.75;;;2.31;100.00
66176;BME280;52977;44.816;20.538;2023-03-16T02:46:30;99662.22;;;2.36;100.00
66176;BME280;52977;44.816;20.538;2023-03-16T02:49:08;99667.34;;;2.38;100.00
66176;BME280;52977;44.816;20.538;2023-03-16T02:51:37;99661.44;;;2.36;100.00
66176;BME280;52977;44.816;20.538;2023-03-16T02:54:03;99675.44;;;2.53;100.00
66176;BME280;52977;44.816;20.538;2023-03-16T02:56:32;99670.03;;;2.59;100.00
66176;BME280;52977;44.816;20.538;2023-03-16T02:58:58;99610.78;;;2.28;100.00
66176;BME280;52977;44.816;20.538;2023-03-16T03:01:25;99628.28;;;2.41;100.00
66176;BME280;52977;44.816;20.538;2023-03-16T03:03:51;99616.69;;;2.14;100.00
66176;BME280;52977;44.816;20.538;2023-03-16T03:06:18;99691.31;;;2.70;100.00
66176;BME280;52977;44.816;20.538;2023-03-16T03:08:44;99624.50;;;2.36;100.00
66176;BME280;52977;44.816;20.538;2023-03-16T03:11:11;99697.00;;;2.79;100.00
66176;BME280;52977;44.816;20.538;2023-03-16T03:13:37;99684.34;;;2.69;100.00
66176;BME280;52977;44.816;20.538;2023-03-16T03:16:09;99668.44;;;2.58;100.00
66176;BME280;52977;44.816;20.538;2023-03-16T03:18:36;99690.25;;;2.77;100.00
66176;BME280;52977;44.816;20.538;2023-03-16T03:21:03;99667.88;;;2.76;100.00
66176;BME280;52977;44.816;20.538;2023-03-16T03:23:30;99709.94;;;2.98;100.00
66176;BME280;52977;44.816;20.538;2023-03-16T03:25:59;99701.00;;;3.02;98.81
66176;BME280;52977;44.816;20.538;2023-03-16T03:28:26;99711.53;;;2.94;98.76
66176;BME280;52977;44.816;20.538;2023-03-16T03:30:51;99710.72;;;3.03;99.06
66176;BME280;52977;44.816;20.538;2023-03-16T03:33:17;99697.25;;;3.03;100.00
66176;BME280;52977;44.816;20.538;2023-03-16T03:35:43;99660.34;;;2.78;100.00
66176;BME280;52977;44.816;20.538;2023-03-16T03:38:09;99672.44;;;2.91;100.00
66176;BME280;52977;44.816;20.538;2023-03-16T03:40:36;99710.44;;;3.15;100.00
66176;BME280;52977;44.816;20.538;2023-03-16T03:43:04;99697.53;;;3.02;99.97
66176;BME280;52977;44.816;20.538;2023-03-16T03:45:34;99717.16;;;3.18;99.45
66176;BME280;52977;44.816;20.538;2023-03-16T03:47:59;99709.34;;;3.16;100.00
66176;BME280;52977;44.816;20.538;2023-03-16T03:50:25;99713.44;;;3.03;100.00
66176;BME280;52977;44.816;20.538;2023-03-16T03:53:05;99727.97;;;3.07;100.00
66176;BME280;52977;44.816;20.538;2023-03-16T03:55:41;99668.41;;;2.73;100.00
66176;BME280;52977;44.816;20.538;2023-03-16T03:58:07;99722.00;;;3.21;98.28
66176;BME280;52977;44.816;20.538;2023-03-16T04:00:34;99739.31;;;3.20;98.70
66176;BME280;52977;44.816;20.538;2023-03-16T04:03:00;99684.03;;;2.97;97.54
66176;BME280;52977;44.816;20.538;2023-03-16T04:05:33;99744.44;;;3.27;97.10
66176;BME280;52977;44.816;20.538;2023-03-16T04:08:00;99749.81;;;3.27;98.02
66176;BME280;52977;44.816;20.538;2023-03-16T04:10:27;99613.19;;;2.39;96.26
66176;BME280;52977;44.816;20.538;2023-03-16T04:12:55;99749.78;;;3.32;96.72
66176;BME280;52977;44.816;20.538;2023-03-16T04:15:21;99691.63;;;2.79;97.65
66176;BME280;52977;44.816;20.538;2023-03-16T04:18:10;99761.69;;;3.15;97.43
66176;BME280;52977;44.816;20.538;2023-03-16T04:20:39;99647.41;;;2.39;99.47
66176;BME280;52977;44.816;20.538;2023-03-16T04:23:05;99761.72;;;3.10;99.51
66176;BME280;52977;44.816;20.538;2023-03-16T04:25:34;99766.00;;;3.11;99.11
66176;BME280;52977;44.816;20.538;2023-03-16T04:28:04;99712.91;;;2.76;100.00
66176;BME280;52977;44.816;20.538;2023-03-16T04:30:33;99766.56;;;3.18;99.40
66176;BME280;52977;44.816;20.538;2023-03-16T04:33:25;99777.34;;;3.18;98.50
66176;BME280;52977;44.816;20.538;2023-03-16T04:35:51;99766.28;;;3.10;97.17
66176;BME280;52977;44.816;20.538;2023-03-16T04:38:18;99710.22;;;2.65;96.49
66176;BME280;52977;44.816;20.538;2023-03-16T04:41:04;99749.03;;;3.00;96.55
66176;BME280;52977;44.816;20.538;2023-03-16T04:43:37;99773.84;;;3.13;97.22
66176;BME280;52977;44.816;20.538;2023-03-16T04:46:13;99761.16;;;3.08;96.89
66176;BME280;52977;44.816;20.538;2023-03-16T04:48:39;99774.66;;;3.18;96.91
66176;BME280;52977;44.816;20.538;2023-03-16T04:51:07;99545.25;;;1.60;98.00
66176;BME280;52977;44.816;20.538;2023-03-16T04:53:37;99753.06;;;2.72;97.46
66176;BME280;52977;44.816;20.538;2023-03-16T04:56:12;99780.28;;;3.01;96.31
66176;BME280;52977;44.816;20.538;2023-03-16T04:58:48;99694.56;;;2.52;95.74
66176;BME280;52977;44.816;20.538;2023-03-16T05:01:16;99790.03;;;3.13;95.17
66176;BME280;52977;44.816;20.538;2023-03-16T05:03:44;99807.00;;;3.13;95.40
66176;BME280;52977;44.816;20.538;2023-03-16T05:06:11;99801.34;;;3.10;96.40
66176;BME280;52977;44.816;20.538;2023-03-16T05:08:38;99809.97;;;3.06;97.34
66176;BME280;52977;44.816;20.538;2023-03-16T05:11:05;99807.28;;;3.12;97.04
66176;BME280;52977;44.816;20.538;2023-03-16T05:13:36;99784.59;;;2.97;95.38
66176;BME280;52977;44.816;20.538;2023-03-16T05:16:03;99817.53;;;3.10;96.29
66176;BME280;52977;44.816;20.538;2023-03-16T05:18:34;99792.97;;;2.96;98.49
66176;BME280;52977;44.816;20.538;2023-03-16T05:21:00;99800.00;;;3.07;96.89
66176;BME280;52977;44.816;20.538;2023-03-16T05:23:37;99786.50;;;2.97;95.90
66176;BME280;52977;44.816;20.538;2023-03-16T05:26:03;99805.66;;;3.11;96.42
66176;BME280;52977;44.816;20.538;2023-03-16T05:28:32;99777.34;;;2.93;96.33
66176;BME280;52977;44.816;20.538;2023-03-16T05:31:02;99756.56;;;2.78;97.16
66176;BME280;52977;44.816;20.538;2023-03-16T05:33:34;99828.59;;;3.34;95.91
66176;BME280;52977;44.816;20.538;2023-03-16T05:36:05;99776.78;;;2.85;96.30
66176;BME280;52977;44.816;20.538;2023-03-16T05:38:32;99826.44;;;3.25;96.91
66176;BME280;52977;44.816;20.538;2023-03-16T05:40:58;99820.50;;;3.29;96.53
66176;BME280;52977;44.816;20.538;2023-03-16T05:43:47;99833.19;;;3.44;95.96
66176;BME280;52977;44.816;20.538;2023-03-16T05:46:14;99806.47;;;3.21;94.99
66176;BME280;52977;44.816;20.538;2023-03-16T05:48:41;99835.34;;;3.47;95.00
66176;BME280;52977;44.816;20.538;2023-03-16T05:51:10;99847.75;;;3.48;95.36
66176;BME280;52977;44.816;20.538;2023-03-16T05:53:39;99839.91;;;3.41;95.70
66176;BME280;52977;44.816;20.538;2023-03-16T05:56:13;99803.22;;;3.19;97.33
66176;BME280;52977;44.816;20.538;2023-03-16T05:58:41;99860.16;;;3.49;95.99
66176;BME280;52977;44.816;20.538;2023-03-16T06:01:08;99833.72;;;3.20;96.41
66176;BME280;52977;44.816;20.538;2023-03-16T06:03:35;99825.34;;;3.06;99.23
66176;BME280;52977;44.816;20.538;2023-03-16T06:06:01;99845.84;;;3.28;100.00
66176;BME280;52977;44.816;20.538;2023-03-16T06:08:31;99857.72;;;3.37;100.00
66176;BME280;52977;44.816;20.538;2023-03-16T06:11:06;99862.59;;;3.40;99.94
66176;BME280;52977;44.816;20.538;2023-03-16T06:13:33;99858.56;;;3.32;99.60
66176;BME280;52977;44.816;20.538;2023-03-16T06:15:59;99833.19;;;3.28;99.96
66176;BME280;52977;44.816;20.538;2023-03-16T06:18:25;99826.44;;;3.05;100.00
66176;BME280;52977;44.816;20.538;2023-03-16T06:20:51;99833.16;;;3.18;99.49
66176;BME280;52977;44.816;20.538;2023-03-16T06:23:19;99871.50;;;3.30;99.63
66176;BME280;52977;44.816;20.538;2023-03-16T06:25:47;99883.91;;;3.41;99.31
66176;BME280;52977;44.816;20.538;2023-03-16T06:28:14;99894.41;;;3.28;99.66
66176;BME280;52977;44.816;20.538;2023-03-16T06:30:41;99883.63;;;3.28;99.09
66176;BME280;52977;44.816;20.538;2023-03-16T06:33:07;99795.41;;;2.77;98.53
66176;BME280;52977;44.816;20.538;2023-03-16T06:35:33;99898.47;;;3.35;98.98
66176;BME280;52977;44.816;20.538;2023-03-16T06:38:26;99899.81;;;3.33;98.24
66176;BME280;52977;44.816;20.538;2023-03-16T06:40:57;99794.84;;;2.69;97.82
66176;BME280;52977;44.816;20.538;2023-03-16T06:43:23;99891.47;;;3.39;97.62
66176;BME280;52977;44.816;20.538;2023-03-16T06:45:50;99903.91;;;3.40;95.85
66176;BME280;52977;44.816;20.538;2023-03-16T06:48:16;99885.53;;;3.32;92.72
66176;BME280;52977;44.816;20.538;2023-03-16T06:50:46;99896.59;;;3.46;90.51
66176;BME280;52977;44.816;20.538;2023-03-16T06:53:13;99900.91;;;3.47;91.08
66176;BME280;52977;44.816;20.538;2023-03-16T06:55:40;99903.91;;;3.56;88.72
66176;BME280;52977;44.816;20.538;2023-03-16T06:58:06;99913.88;;;3.55;87.22
66176;BME280;52977;44.816;20.538;2023-03-16T07:00:33;99833.44;;;3.01;85.57
66176;BME280;52977;44.816;20.538;2023-03-16T07:03:00;99913.88;;;3.61;85.13
66176;BME280;52977;44.816;20.538;2023-03-16T07:05:28;99913.31;;;3.64;84.65
66176;BME280;52977;44.816;20.538;2023-03-16T07:07:56;99911.16;;;3.61;84.41
66176;BME280;52977;44.816;20.538;2023-03-16T07:10:23;99908.19;;;3.57;84.14
66176;BME280;52977;44.816;20.538;2023-03-16T07:12:50;99885.00;;;3.51;84.08
66176;BME280;52977;44.816;20.538;2023-03-16T07:15:17;99912.50;;;3.68;84.40
66176;BME280;52977;44.816;20.538;2023-03-16T07:17:44;99903.88;;;3.61;81.68
66176;BME280;52977;44.816;20.538;2023-03-16T07:20:11;99848.84;;;3.31;79.28
66176;BME280;52977;44.816;20.538;2023-03-16T07:22:38;99909.81;;;3.58;78.34
66176;BME280;52977;44.816;20.538;2023-03-16T07:25:07;99927.09;;;3.62;79.59
66176;BME280;52977;44.816;20.538;2023-03-16T07:27:40;99864.75;;;3.28;76.81
66176;BME280;52977;44.816;20.538;2023-03-16T07:30:09;99941.66;;;3.76;76.20
66176;BME280;52977;44.816;20.538;2023-03-16T07:32:40;99940.59;;;3.72;78.37
66176;BME280;52977;44.816;20.538;2023-03-16T07:35:11;99939.78;;;3.72;78.46
66176;BME280;52977;44.816;20.538;2023-03-16T07:37:38;99950.56;;;3.67;74.12
66176;BME280;52977;44.816;20.538;2023-03-16T07:40:06;99865.56;;;3.13;76.44
66176;BME280;52977;44.816;20.538;2023-03-16T07:42:35;99952.47;;;3.66;76.25
66176;BME280;52977;44.816;20.538;2023-03-16T07:45:07;99939.78;;;3.51;75.79
66176;BME280;52977;44.816;20.538;2023-03-16T07:47:34;99965.16;;;3.61;76.65
66176;BME280;52977;44.816;20.538;2023-03-16T07:50:09;99967.88;;;3.81;76.26
66176;BME280;52977;44.816;20.538;2023-03-16T07:52:39;99965.69;;;3.83;75.65
66176;BME280;52977;44.816;20.538;2023-03-16T07:55:06;99884.44;;;3.33;75.04
66176;BME280;52977;44.816;20.538;2023-03-16T07:57:33;99962.19;;;3.67;75.86
66176;BME280;52977;44.816;20.538;2023-03-16T07:59:59;99985.69;;;3.77;75.11
66176;BME280;52977;44.816;20.538;2023-03-16T08:02:38;99986.22;;;3.69;75.63
66176;BME280;52977;44.816;20.538;2023-03-16T08:05:07;99970.28;;;3.57;76.28
66176;BME280;52977;44.816;20.538;2023-03-16T08:07:38;99974.06;;;3.66;76.83
66176;BME280;52977;44.816;20.538;2023-03-16T08:10:19;99973.25;;;3.71;78.39
66176;BME280;52977;44.816;20.538;2023-03-16T08:12:56;99960.28;;;3.63;78.38
66176;BME280;52977;44.816;20.538;2023-03-16T08:15:22;99950.59;;;3.77;78.87
66176;BME280;52977;44.816;20.538;2023-03-16T08:17:54;99951.09;;;3.58;79.03
66176;BME280;52977;44.816;20.538;2023-03-16T08:20:23;99979.75;;;3.70;78.61
66176;BME280;52977;44.816;20.538;2023-03-16T08:22:51;99984.63;;;3.73;78.83
66176;BME280;52977;44.816;20.538;2023-03-16T08:25:23;99993.25;;;3.80;79.58
66176;BME280;52977;44.816;20.538;2023-03-16T08:28:00;99965.69;;;3.63;77.34
66176;BME280;52977;44.816;20.538;2023-03-16T08:30:27;99983.81;;;3.67;78.70
66176;BME280;52977;44.816;20.538;2023-03-16T08:33:10;99969.75;;;3.70;76.96
66176;BME280;52977;44.816;20.538;2023-03-16T08:35:40;99975.44;;;3.69;77.60
66176;BME280;52977;44.816;20.538;2023-03-16T08:38:07;99936.53;;;3.44;77.89
66176;BME280;52977;44.816;20.538;2023-03-16T08:40:34;99995.13;;;3.90;76.26
66176;BME280;52977;44.816;20.538;2023-03-16T08:43:00;99974.88;;;3.72;76.51
66176;BME280;52977;44.816;20.538;2023-03-16T08:45:27;99995.41;;;3.99;77.32
66176;BME280;52977;44.816;20.538;2023-03-16T08:47:54;99990.53;;;4.06;75.75
66176;BME280;52977;44.816;20.538;2023-03-16T08:50:20;99999.47;;;4.06;76.03
66176;BME280;52977;44.816;20.538;2023-03-16T08:52:55;99962.75;;;3.74;76.86
66176;BME280;52977;44.816;20.538;2023-03-16T08:55:21;100002.69;;;4.14;76.59
66176;BME280;52977;44.816;20.538;2023-03-16T08:57:49;99961.66;;;3.91;75.20
66176;BME280;52977;44.816;20.538;2023-03-16T09:00:15;100007.00;;;4.20;74.85
66176;BME280;52977;44.816;20.538;2023-03-16T09:02:43;99978.09;;;4.20;73.63
66176;BME280;52977;44.816;20.538;2023-03-16T09:05:12;100002.16;;;4.27;73.52
66176;BME280;52977;44.816;20.538;2023-03-16T09:07:39;100001.06;;;4.18;73.18
66176;BME280;52977;44.816;20.538;2023-03-16T09:10:06;99950.56;;;4.08;73.39
66176;BME280;52977;44.816;20.538;2023-03-16T09:12:36;99999.66;;;4.46;72.76
66176;BME280;52977;44.816;20.538;2023-03-16T09:15:04;99963.50;;;4.26;73.54
66176;BME280;52977;44.816;20.538;2023-03-16T09:17:30;99999.09;;;4.59;73.37
66176;BME280;52977;44.816;20.538;2023-03-16T09:19:57;100000.69;;;4.71;72.88
66176;BME280;52977;44.816;20.538;2023-03-16T09:22:24;100008.53;;;4.72;71.19
66176;BME280;52977;44.816;20.538;2023-03-16T09:24:53;99957.28;;;4.26;72.16
66176;BME280;52977;44.816;20.538;2023-03-16T09:27:19;99925.41;;;4.23;73.39
66176;BME280;52977;44.816;20.538;2023-03-16T09:29:50;100021.47;;;4.81;71.08
66176;BME280;52977;44.816;20.538;2023-03-16T09:32:17;100011.97;;;4.88;72.00
66176;BME280;52977;44.816;20.538;2023-03-16T09:34:44;99996.28;;;4.90;71.94
66176;BME280;52977;44.816;20.538;2023-03-16T09:37:10;100009.75;;;5.01;72.18
66176;BME280;52977;44.816;20.538;2023-03-16T09:39:37;99983.28;;;4.92;71.42
66176;BME280;52977;44.816;20.538;2023-03-16T09:42:16;100017.34;;;4.99;69.67
66176;BME280;52977;44.816;20.538;2023-03-16T09:45:02;99984.75;;;4.69;69.15
66176;BME280;52977;44.816;20.538;2023-03-16T09:47:32;99974.72;;;4.75;68.85
66176;BME280;52977;44.816;20.538;2023-03-16T09:50:07;99993.84;;;4.94;69.23
66176;BME280;52977;44.816;20.538;2023-03-16T09:57:36;99999.19;;;5.04;69.04
66176;BME280;52977;44.816;20.538;2023-03-16T10:00:21;100034.59;;;5.18;68.80
66176;BME280;52977;44.816;20.538;2023-03-16T10:02:57;100025.66;;;5.18;68.62
66176;BME280;52977;44.816;20.538;2023-03-16T10:05:26;100027.53;;;5.22;69.11
66176;BME280;52977;44.816;20.538;2023-03-16T10:08:20;100044.00;;;5.26;69.81
66176;BME280;52977;44.816;20.538;2023-03-16T10:10:57;100030.72;;;5.35;67.12
66176;BME280;52977;44.816;20.538;2023-03-16T10:13:33;99992.44;;;5.02;67.05
66176;BME280;52977;44.816;20.538;2023-03-16T10:16:06;99916.63;;;4.57;68.47
66176;BME280;52977;44.816;20.538;2023-03-16T10:18:45;100042.66;;;5.28;65.95
66176;BME280;52977;44.816;20.538;2023-03-16T10:21:14;100044.56;;;5.23;63.01
66176;BME280;52977;44.816;20.538;2023-03-16T10:23:42;100038.00;;;5.39;62.82
66176;BME280;52977;44.816;20.538;2023-03-16T10:26:27;100038.97;;;5.59;62.47
66176;BME280;52977;44.816;20.538;2023-03-16T10:28:56;100026.28;;;5.54;63.32
66176;BME280;52977;44.816;20.538;2023-03-16T10:31:26;100029.50;;;5.56;63.15
66176;BME280;52977;44.816;20.538;2023-03-16T10:34:00;100024.38;;;5.55;62.43
66176;BME280;52977;44.816;20.538;2023-03-16T10:36:32;100026.78;;;5.61;64.17
66176;BME280;52977;44.816;20.538;2023-03-16T10:39:05;99982.50;;;5.42;62.33
66176;BME280;52977;44.816;20.538;2023-03-16T10:41:34;99932.63;;;5.03;62.39
66176;BME280;52977;44.816;20.538;2023-03-16T10:44:10;100023.09;;;5.81;62.21
66176;BME280;52977;44.816;20.538;2023-03-16T10:46:48;100022.72;;;5.98;61.12
66176;BME280;52977;44.816;20.538;2023-03-16T10:49:33;100018.94;;;5.94;59.81
66176;BME280;52977;44.816;20.538;2023-03-16T10:52:11;100019.81;;;5.85;59.85
66176;BME280;52977;44.816;20.538;2023-03-16T10:54:39;100024.16;;;5.86;60.19
66176;BME280;52977;44.816;20.538;2023-03-16T10:57:31;100018.59;;;6.06;59.84
66176;BME280;52977;44.816;20.538;2023-03-16T11:00:06;99999.47;;;5.87;59.78
66176;BME280;52977;44.816;20.538;2023-03-16T11:02:34;100001.75;;;5.75;59.51
66176;BME280;52977;44.816;20.538;2023-03-16T11:08:04;100009.72;;;5.95;58.73
66176;BME280;52977;44.816;20.538;2023-03-16T11:10:37;100002.91;;;6.03;60.01
66176;BME280;52977;44.816;20.538;2023-03-16T11:13:16;99984.09;;;5.82;60.48
66176;BME280;52977;44.816;20.538;2023-03-16T11:15:55;99979.53;;;5.78;59.22
66176;BME280;52977;44.816;20.538;2023-03-16T11:18:45;100015.19;;;5.90;59.66
66176;BME280;52977;44.816;20.538;2023-03-16T11:21:52;100018.09;;;6.04;60.21
66176;BME280;52977;44.816;20.538;2023-03-16T11:24:32;100030.31;;;6.02;57.04
66176;BME280;52977;44.816;20.538;2023-03-16T11:27:03;100021.00;;;6.13;57.05
66176;BME280;52977;44.816;20.538;2023-03-16T11:29:43;100010.38;;;6.16;57.59
66176;BME280;52977;44.816;20.538;2023-03-16T11:32:18;100008.50;;;6.17;58.36
66176;BME280;52977;44.816;20.538;2023-03-16T11:34:45;99992.88;;;6.04;59.41
66176;BME280;52977;44.816;20.538;2023-03-16T11:37:31;99968.91;;;5.81;59.69
66176;BME280;52977;44.816;20.538;2023-03-16T11:42:47;100010.81;;;6.29;58.28
66176;BME280;52977;44.816;20.538;2023-03-16T11:48:15;99999.97;;;6.29;58.70
66176;BME280;52977;44.816;20.538;2023-03-16T11:54:04;100027.63;;;6.31;57.81
66176;BME280;52977;44.816;20.538;2023-03-16T11:56:41;100000.59;;;6.21;58.28
66176;BME280;52977;44.816;20.538;2023-03-16T12:05:33;100000.25;;;6.27;57.86
66176;BME280;52977;44.816;20.538;2023-03-16T12:10:44;100021.75;;;6.19;56.09
66176;BME280;52977;44.816;20.538;2023-03-16T12:15:50;100017.28;;;6.33;56.71
66176;BME280;52977;44.816;20.538;2023-03-16T12:18:38;99959.03;;;6.01;57.07
66176;BME280;52977;44.816;20.538;2023-03-16T12:21:19;100022.94;;;6.37;56.22
66176;BME280;52977;44.816;20.538;2023-03-16T12:23:52;100013.84;;;6.22;56.53
66176;BME280;52977;44.816;20.538;2023-03-16T12:26:23;100008.69;;;6.26;56.46
66176;BME280;52977;44.816;20.538;2023-03-16T12:28:52;100000.94;;;6.67;55.74
66176;BME280;52977;44.816;20.538;2023-03-16T12:31:34;100005.59;;;6.86;54.12
66176;BME280;52977;44.816;20.538;2023-03-16T12:34:12;100023.97;;;6.70;53.94
66176;BME280;52977;44.816;20.538;2023-03-16T12:37:04;100017.41;;;6.47;54.18
66176;BME280;52977;44.816;20.538;2023-03-16T12:39:53;100025.34;;;6.43;55.90
66176;BME280;52977;44.816;20.538;2023-03-16T12:50:12;99974.97;;;6.32;55.12
66176;BME280;52977;44.816;20.538;2023-03-16T12:52:42;99963.31;;;6.07;56.42
66176;BME280;52977;44.816;20.538;2023-03-16T12:55:18;99984.78;;;6.28;56.34
66176;BME280;52977;44.816;20.538;2023-03-16T12:57:47;100012.81;;;6.72;55.59
66176;BME280;52977;44.816;20.538;2023-03-16T13:00:15;100048.38;;;6.70;53.68
66176;BME280;52977;44.816;20.538;2023-03-16T13:02:44;100031.66;;;6.63;54.56
66176;BME280;52977;44.816;20.538;2023-03-16T13:05:15;100032.03;;;6.51;53.01
66176;BME280;52977;44.816;20.538;2023-03-16T13:07:49;99981.59;;;6.21;53.57
66176;BME280;52977;44.816;20.538;2023-03-16T13:10:17;100031.59;;;6.92;52.60
66176;BME280;52977;44.816;20.538;2023-03-16T13:12:45;100029.94;;;7.15;52.22
66176;BME280;52977;44.816;20.538;2023-03-16T13:17:46;99995.72;;;6.95;52.71
66176;BME280;52977;44.816;20.538;2023-03-16T13:22:49;99960.50;;;6.42;52.29
66176;BME280;52977;44.816;20.538;2023-03-16T13:25:23;99977.81;;;6.46;52.47
66176;BME280;52977;44.816;20.538;2023-03-16T13:28:01;100022.84;;;6.71;53.41
66176;BME280;52977;44.816;20.538;2023-03-16T13:30:32;100017.34;;;6.57;53.94
66176;BME280;52977;44.816;20.538;2023-03-16T13:33:05;100037.97;;;6.53;53.18
66176;BME280;52977;44.816;20.538;2023-03-16T13:35:36;100043.50;;;6.43;53.38
66176;BME280;52977;44.816;20.538;2023-03-16T13:38:13;100007.25;;;6.33;52.97
66176;BME280;52977;44.816;20.538;2023-03-16T13:40:49;100048.72;;;6.63;54.04
66176;BME280;52977;44.816;20.538;2023-03-16T13:43:23;99921.84;;;6.07;52.55
66176;BME280;52977;44.816;20.538;2023-03-16T13:45:49;100032.50;;;7.07;51.84
66176;BME280;52977;44.816;20.538;2023-03-16T13:48:16;100036.81;;;6.83;51.12
66176;BME280;52977;44.816;20.538;2023-03-16T13:50:54;100042.66;;;6.72;51.46
66176;BME280;52977;44.816;20.538;2023-03-16T13:53:40;100060.06;;;6.65;52.54
66176;BME280;52977;44.816;20.538;2023-03-16T13:56:12;99980.34;;;6.13;52.54
66176;BME280;52977;44.816;20.538;2023-03-16T13:58:39;100054.53;;;6.52;52.78
66176;BME280;52977;44.816;20.538;2023-03-16T14:01:24;100040.50;;;6.44;52.24
66176;BME280;52977;44.816;20.538;2023-03-16T14:03:51;100041.38;;;6.64;52.24
66176;BME280;52977;44.816;20.538;2023-03-16T14:06:27;100044.34;;;6.67;52.09
66176;BME280;52977;44.816;20.538;2023-03-16T14:08:58;100040.75;;;6.72;52.53